Time;durP1;ratioP1;P1;durP2;ratioP2;P2;SDS_P1;SDS_P2;PMS_P1;PMS_P2;Temp;Humidity;BMP_temperature;BMP_pressure;BME280_temperature;BME280_humidity;BME280_pressure;Samples;Min_cycle;Max_cycle;Signal;HPM_P1;HPM_P2
2022/11/08 00:01:33;;;;;;;8.43;6.80;;;8.90;99.90;;;;;;6052444;23;20196;-79
2022/11/08 00:04:01;;;;;;;8.25;7.00;;;9.30;99.90;;;;;;6052946;23;20251;-79
2022/11/08 00:14:48;;;;;;;8.23;7.43;;;9.10;99.90;;;;;;6034623;23;20194;-78
2022/11/08 00:17:19;;;;;;;10.85;8.13;;;8.80;99.90;;;;;;6058440;23;20198;-79
2022/11/08 00:19:47;;;;;;;8.73;7.80;;;9.10;99.90;;;;;;6053996;23;20207;-77
2022/11/08 00:22:16;;;;;;;8.70;7.72;;;8.80;99.90;;;;;;6055690;23;20221;-79
2022/11/08 00:24:44;;;;;;;9.38;8.48;;;9.00;99.90;;;;;;6060547;23;20241;-78
2022/11/08 00:27:13;;;;;;;9.23;8.32;;;9.00;99.90;;;;;;6059351;23;20202;-79
2022/11/08 00:29:40;;;;;;;9.70;8.60;;;9.00;99.90;;;;;;6059204;23;20230;-79
2022/11/08 00:32:11;;;;;;;9.90;8.38;;;9.00;99.90;;;;;;6059622;23;20202;-79
2022/11/08 00:34:41;;;;;;;8.60;7.80;;;9.00;99.90;;;;;;6056675;23;20199;-79
2022/11/08 00:37:10;;;;;;;12.07;8.70;;;8.70;99.90;;;;;;6081073;23;20311;-78
2022/11/08 00:39:40;;;;;;;9.45;8.57;;;9.00;99.90;;;;;;6057229;23;20218;-79
2022/11/08 00:42:07;;;;;;;10.20;9.20;;;8.70;99.90;;;;;;6058656;23;20199;-79
2022/11/08 00:44:35;;;;;;;12.35;9.20;;;8.70;99.90;;;;;;6059701;23;20278;-79
2022/11/08 00:47:02;;;;;;;10.38;8.10;;;8.60;99.90;;;;;;6046106;23;20199;-79
2022/11/08 00:49:30;;;;;;;9.25;8.35;;;8.60;99.90;;;;;;6054648;23;20251;-79
2022/11/08 00:51:57;;;;;;;10.25;9.25;;;8.90;99.90;;;;;;6056089;23;20234;-79
2022/11/08 00:54:25;;;;;;;9.15;8.25;;;8.60;99.90;;;;;;6057914;23;20203;-79
2022/11/08 00:56:55;;;;;;;10.07;9.00;;;8.50;99.90;;;;;;6061997;23;20242;-79
2022/11/08 00:59:22;;;;;;;13.98;9.80;;;8.70;99.90;;;;;;6051818;23;20203;-79
2022/11/08 01:01:49;;;;;;;9.45;8.50;;;8.70;99.90;;;;;;6056107;23;20233;-79
2022/11/08 01:04:19;;;;;;;10.23;9.23;;;8.70;99.90;;;;;;6058051;23;20199;-80
2022/11/08 01:06:46;;;;;;;12.05;9.27;;;8.70;99.90;;;;;;6072297;23;20199;-79
2022/11/08 01:09:14;;;;;;;10.63;9.55;;;8.60;99.90;;;;;;6060334;23;20664;-78
2022/11/08 01:11:46;;;;;;;10.05;9.15;;;8.30;99.90;;;;;;6044738;23;20210;-79
2022/11/08 01:14:15;;;;;;;9.00;8.20;;;8.30;99.90;;;;;;6043728;23;20210;-78
2022/11/08 01:16:44;;;;;;;11.55;8.88;;;8.50;99.90;;;;;;6060643;23;20197;-80
2022/11/08 01:19:11;;;;;;;11.93;10.73;;;8.20;99.90;;;;;;6032262;23;20213;-80
2022/11/08 01:21:38;;;;;;;10.65;9.75;;;8.50;99.90;;;;;;6032463;23;20191;-79
2022/11/08 01:24:07;;;;;;;11.43;9.85;;;8.40;99.90;;;;;;6030089;23;20195;-79
2022/11/08 01:26:35;;;;;;;10.73;9.57;;;8.10;99.90;;;;;;6031463;23;20205;-79
2022/11/08 01:29:02;;;;;;;13.85;10.50;;;8.40;99.90;;;;;;6031998;23;20198;-79
2022/11/08 01:31:32;;;;;;;12.30;10.73;;;8.10;99.90;;;;;;6030600;23;20250;-80
2022/11/08 01:34:00;;;;;;;11.15;10.05;;;8.10;99.90;;;;;;6008276;23;20215;-80
2022/11/08 01:36:29;;;;;;;11.95;10.88;;;8.10;99.90;;;;;;6030312;23;20204;-80
2022/11/08 01:38:57;;;;;;;10.25;9.35;;;8.40;99.90;;;;;;6033827;23;20211;-79
2022/11/08 01:41:26;;;;;;;12.75;10.75;;;8.10;99.90;;;;;;6033734;23;20188;-80
2022/11/08 01:43:55;;;;;;;10.93;9.82;;;8.40;99.90;;;;;;6031753;23;20192;-80
2022/11/08 01:46:39;;;;;;;11.77;10.75;;;8.40;99.90;;;;;;6031020;23;20238;-80
2022/11/08 01:49:20;;;;;;;10.63;9.52;;;8.40;99.90;;;;;;6029934;23;20223;-81
2022/11/08 01:51:53;;;;;;;10.25;9.25;;;8.10;99.90;;;;;;6029791;23;20193;-80
2022/11/08 01:54:25;;;;;;;12.48;10.30;;;8.10;99.90;;;;;;6032243;23;20225;-80
2022/11/08 01:56:54;;;;;;;10.55;9.55;;;8.10;99.90;;;;;;6020220;23;20208;-80
2022/11/08 01:59:22;;;;;;;11.35;10.15;;;8.10;99.90;;;;;;6022531;23;20211;-80
2022/11/08 02:01:52;;;;;;;10.55;9.55;;;8.10;99.90;;;;;;6031379;23;20203;-80
2022/11/08 02:04:20;;;;;;;10.75;9.77;;;8.10;99.90;;;;;;6031565;23;20195;-80
2022/11/08 02:06:49;;;;;;;10.30;9.40;;;8.00;99.90;;;;;;6032255;23;20247;-81
2022/11/08 02:09:18;;;;;;;11.55;9.90;;;8.00;99.90;;;;;;6008216;23;20180;-80
2022/11/08 02:11:47;;;;;;;10.75;9.60;;;8.00;99.90;;;;;;6022095;23;20200;-80
2022/11/08 02:14:16;;;;;;;10.57;9.50;;;8.00;99.90;;;;;;6024641;23;20192;-80
2022/11/08 02:16:49;;;;;;;11.50;10.45;;;8.00;99.90;;;;;;6028837;23;20206;-79
2022/11/08 02:19:25;;;;;;;10.07;9.18;;;8.00;99.90;;;;;;6034153;23;20202;-80
2022/11/08 02:21:57;;;;;;;9.95;9.05;;;8.00;99.90;;;;;;6033283;23;20191;-80
2022/11/08 02:24:26;;;;;;;11.20;9.35;;;8.00;99.90;;;;;;6030461;23;20229;-81
2022/11/08 02:26:56;;;;;;;9.93;8.93;;;7.90;99.90;;;;;;6024323;23;21632;-80
2022/11/08 02:29:25;;;;;;;11.30;10.18;;;7.90;99.90;;;;;;6024869;23;20223;-78
2022/11/08 02:31:53;;;;;;;10.32;9.32;;;7.90;99.90;;;;;;6023268;23;20199;-79
2022/11/08 02:34:24;;;;;;;10.13;9.23;;;7.90;99.90;;;;;;6024471;23;20203;-79
2022/11/08 02:36:52;;;;;;;10.63;9.63;;;7.80;99.90;;;;;;6004504;23;20182;-80
2022/11/08 02:39:19;;;;;;;11.32;10.20;;;7.80;99.90;;;;;;6026831;23;20234;-79
2022/11/08 02:41:48;;;;;;;11.27;9.52;;;7.70;99.90;;;;;;6065197;23;20198;-80
2022/11/08 02:44:15;;;;;;;10.77;9.15;;;8.00;99.90;;;;;;6060017;23;20196;-80
2022/11/08 02:46:43;;;;;;;11.52;10.15;;;7.70;99.90;;;;;;6063006;23;20189;-80
2022/11/08 02:49:10;;;;;;;9.55;8.65;;;7.60;99.90;;;;;;6060189;23;20195;-80
2022/11/08 02:51:37;;;;;;;10.65;9.57;;;7.70;99.90;;;;;;6059833;23;20263;-79
2022/11/08 02:54:04;;;;;;;10.38;9.38;;;7.60;99.90;;;;;;6067561;23;20192;-80
2022/11/08 02:56:32;;;;;;;10.23;9.35;;;7.60;99.90;;;;;;6078115;23;20204;-80
2022/11/08 02:59:01;;;;;;;11.32;8.88;;;7.60;99.90;;;;;;6061122;23;20205;-79
2022/11/08 03:01:29;;;;;;;9.60;8.70;;;7.80;99.90;;;;;;6059404;23;20190;-80
2022/11/08 03:03:56;;;;;;;10.30;9.25;;;7.80;99.90;;;;;;6062511;23;20206;-79
2022/11/08 03:06:23;;;;;;;10.10;9.25;;;7.20;99.90;;;;;;6059674;23;20190;-79
2022/11/08 03:08:52;;;;;;;8.57;7.78;;;7.20;99.90;;;;;;6075677;23;20181;-79
2022/11/08 03:11:20;;;;;;;8.88;7.97;;;7.70;99.90;;;;;;6047811;23;20741;-80
2022/11/08 03:13:47;;;;;;;9.10;8.30;;;7.50;99.90;;;;;;6055442;23;20195;-79
2022/11/08 03:16:16;;;;;;;8.70;7.90;;;7.50;99.90;;;;;;6068829;23;20198;-79
2022/11/08 03:18:44;;;;;;;10.15;8.15;;;7.50;99.90;;;;;;6054216;23;20211;-81
2022/11/08 03:21:11;;;;;;;8.38;7.47;;;7.80;99.90;;;;;;6059753;23;20200;-80
2022/11/08 03:23:39;;;;;;;10.52;8.65;;;7.60;99.90;;;;;;6061851;23;20214;-80
2022/11/08 03:26:07;;;;;;;9.93;8.35;;;7.60;99.90;;;;;;6062160;23;20207;-80
2022/11/08 03:28:34;;;;;;;8.90;8.05;;;7.80;99.90;;;;;;6069652;23;20199;-80
2022/11/08 03:31:02;;;;;;;9.02;8.05;;;7.50;99.90;;;;;;6062705;23;20182;-80
2022/11/08 03:33:30;;;;;;;9.07;8.18;;;7.50;99.90;;;;;;6060867;23;20264;-81
2022/11/08 03:35:58;;;;;;;8.68;7.88;;;7.40;99.90;;;;;;6060435;23;20217;-80
2022/11/08 03:38:25;;;;;;;11.40;8.40;;;7.40;99.90;;;;;;6054336;23;20195;-80
2022/11/08 03:40:52;;;;;;;8.35;7.60;;;7.40;99.90;;;;;;6067594;23;20216;-81
2022/11/08 03:43:19;;;;;;;8.63;7.72;;;7.40;99.90;;;;;;6064175;23;20268;-80
2022/11/08 03:45:47;;;;;;;8.80;7.88;;;7.30;99.90;;;;;;6065415;23;20189;-83
2022/11/08 03:48:14;;;;;;;9.05;8.25;;;7.30;99.90;;;;;;6061995;23;20203;-81
2022/11/08 03:50:43;;;;;;;9.40;7.88;;;7.30;99.90;;;;;;6060548;23;20186;-80
2022/11/08 03:53:10;;;;;;;10.40;8.80;;;7.20;99.90;;;;;;6028169;23;20255;-81
2022/11/08 03:55:37;;;;;;;8.90;8.02;;;7.30;99.90;;;;;;6013109;23;20219;-80
2022/11/08 03:58:05;;;;;;;9.70;8.32;;;7.20;99.90;;;;;;6005289;23;20192;-81
2022/11/08 04:00:33;;;;;;;8.75;7.90;;;7.50;99.90;;;;;;6009249;23;20199;-81
2022/11/08 04:03:05;;;;;;;8.32;7.63;;;7.20;99.90;;;;;;6003714;23;20200;-81
2022/11/08 04:05:32;;;;;;;8.73;7.93;;;7.50;99.90;;;;;;6004417;23;20207;-81
2022/11/08 04:08:02;;;;;;;10.48;9.38;;;6.90;99.90;;;;;;5998847;23;20195;-81
2022/11/08 04:10:29;;;;;;;9.57;8.10;;;7.20;99.90;;;;;;5996152;23;20231;-81
2022/11/08 04:15:45;;;;;;;8.52;7.20;;;7.30;99.90;;;;;;5984265;23;20200;-80
2022/11/08 04:21:19;;;;;;;8.48;7.63;;;7.20;99.90;;;;;;6005695;23;20215;-80
2022/11/08 04:23:48;;;;;;;9.90;8.25;;;7.20;99.90;;;;;;6016534;23;20212;-81
2022/11/08 04:26:16;;;;;;;9.18;8.32;;;7.50;99.90;;;;;;6003678;23;20198;-81
2022/11/08 04:28:44;;;;;;;8.93;8.13;;;7.20;99.90;;;;;;6016460;23;20218;-82
2022/11/08 04:31:15;;;;;;;8.93;8.13;;;7.30;99.90;;;;;;6024619;23;20213;-80
2022/11/08 04:33:43;;;;;;;8.00;7.25;;;7.50;99.90;;;;;;5992967;23;20193;-81
2022/11/08 04:36:12;;;;;;;9.57;8.68;;;7.60;99.90;;;;;;5988082;23;20194;-80
2022/11/08 04:38:40;;;;;;;9.25;8.35;;;7.20;99.90;;;;;;5995229;23;20207;-82
2022/11/08 04:41:11;;;;;;;8.57;7.72;;;7.60;99.90;;;;;;5974139;23;20191;-82
2022/11/08 04:43:39;;;;;;;9.73;7.95;;;7.20;99.90;;;;;;5980255;23;20196;-81
2022/11/08 04:46:08;;;;;;;10.05;8.10;;;7.10;99.90;;;;;;5978398;23;20215;-81
2022/11/08 04:48:36;;;;;;;8.05;7.25;;;7.10;99.90;;;;;;5965742;23;20196;-80
2022/11/08 04:51:06;;;;;;;10.05;9.05;;;7.10;99.90;;;;;;5981799;23;20226;-81
2022/11/08 04:53:33;;;;;;;9.15;8.10;;;7.10;99.90;;;;;;5983189;23;20203;-77
2022/11/08 04:56:03;;;;;;;9.70;8.02;;;7.20;99.90;;;;;;5982614;23;20222;-80
2022/11/08 04:58:35;;;;;;;11.57;8.95;;;7.00;99.90;;;;;;5980487;23;20248;-82
2022/11/08 05:01:04;;;;;;;8.70;7.90;;;7.00;99.90;;;;;;5964110;23;20271;-79
2022/11/08 05:03:31;;;;;;;12.75;9.60;;;7.00;99.90;;;;;;5976721;23;20199;-80
2022/11/08 05:06:05;;;;;;;8.80;7.95;;;7.00;99.90;;;;;;5981584;23;20226;-83
2022/11/08 05:08:33;;;;;;;9.63;8.73;;;7.00;99.90;;;;;;5989505;23;20534;-79
2022/11/08 05:11:01;;;;;;;9.40;8.50;;;6.90;99.90;;;;;;5994078;23;20230;-79
2022/11/08 05:13:28;;;;;;;11.20;9.85;;;6.90;99.90;;;;;;6014059;23;20225;-79
2022/11/08 05:16:00;;;;;;;9.70;8.70;;;6.70;99.90;;;;;;6022993;23;20280;-79
2022/11/08 05:18:28;;;;;;;9.88;8.98;;;6.60;99.90;;;;;;5990095;23;20194;-80
2022/11/08 05:23:43;;;;;;;9.95;8.95;;;6.50;99.90;;;;;;5992838;23;20206;-79
2022/11/08 05:26:13;;;;;;;9.82;8.93;;;6.50;99.90;;;;;;5997770;23;20199;-79
2022/11/08 05:28:40;;;;;;;9.13;8.13;;;6.50;99.90;;;;;;5981515;23;20273;-75
2022/11/08 05:31:09;;;;;;;11.25;9.27;;;6.50;99.90;;;;;;5986722;23;20203;-78
2022/11/08 05:33:37;;;;;;;10.13;9.00;;;6.50;99.90;;;;;;5976600;23;20210;-77
2022/11/08 05:36:05;;;;;;;8.98;8.10;;;6.50;99.90;;;;;;5974842;23;20206;-78
2022/11/08 05:38:32;;;;;;;10.00;9.00;;;6.40;99.90;;;;;;5977992;23;20852;-77
2022/11/08 05:41:03;;;;;;;8.85;7.95;;;6.40;99.90;;;;;;5984251;23;20740;-78
2022/11/08 05:43:32;;;;;;;9.23;8.32;;;6.50;99.90;;;;;;5971866;23;20196;-80
2022/11/08 05:46:00;;;;;;;7.82;7.00;;;6.50;99.90;;;;;;5971419;23;20553;-80
2022/11/08 05:48:29;;;;;;;8.35;7.55;;;6.50;99.90;;;;;;5959410;23;20195;-78
2022/11/08 05:50:57;;;;;;;8.90;8.00;;;6.80;99.90;;;;;;5975021;23;20494;-78
2022/11/08 05:53:45;;;;;;;7.30;6.60;;;6.70;99.90;;;;;;5965085;23;20509;-75
2022/11/08 05:56:13;;;;;;;7.95;7.25;;;6.80;99.90;;;;;;5972887;23;20264;-75
2022/11/08 05:58:40;;;;;;;9.45;7.38;;;6.80;99.90;;;;;;5969073;23;20222;-77
2022/11/08 06:01:09;;;;;;;7.35;6.60;;;6.80;99.90;;;;;;5965209;23;20254;-77
2022/11/08 06:03:39;;;;;;;7.85;7.10;;;6.80;99.90;;;;;;5958719;23;20309;-76
2022/11/08 06:06:09;;;;;;;7.40;6.65;;;6.80;99.90;;;;;;5959438;23;20195;-77
2022/11/08 06:08:38;;;;;;;7.57;6.97;;;6.80;99.90;;;;;;5952989;23;20195;-77
2022/11/08 06:11:07;;;;;;;9.85;7.72;;;6.80;99.90;;;;;;5964339;23;20541;-76
2022/11/08 06:13:34;;;;;;;7.25;6.55;;;6.80;99.90;;;;;;5960601;23;20223;-76
2022/11/08 06:16:03;;;;;;;8.77;6.63;;;6.80;99.90;;;;;;5964583;23;20654;-76
2022/11/08 06:18:30;;;;;;;9.48;7.30;;;6.80;99.90;;;;;;5956716;23;20222;-76
2022/11/08 06:21:01;;;;;;;7.32;6.70;;;6.80;99.90;;;;;;5944305;23;20211;-77
2022/11/08 06:23:30;;;;;;;7.82;6.95;;;6.80;99.90;;;;;;5964379;23;20200;-77
2022/11/08 06:25:57;;;;;;;9.88;6.75;;;6.80;99.90;;;;;;5963351;23;20274;-76
2022/11/08 06:28:24;;;;;;;7.90;7.10;;;6.80;99.90;;;;;;5967686;23;20554;-77
2022/11/08 06:30:52;;;;;;;8.88;7.80;;;6.80;99.90;;;;;;5970403;23;20310;-77
2022/11/08 06:33:20;;;;;;;8.10;7.40;;;6.80;99.90;;;;;;5968099;23;20195;-77
2022/11/08 06:35:47;;;;;;;11.18;8.02;;;6.80;99.90;;;;;;5967654;23;20224;-77
2022/11/08 06:38:15;;;;;;;8.85;7.80;;;6.80;99.90;;;;;;5961292;23;20186;-78
2022/11/08 06:40:43;;;;;;;10.70;7.78;;;6.80;99.90;;;;;;5972684;23;20297;-77
2022/11/08 06:43:11;;;;;;;7.57;6.78;;;6.90;99.90;;;;;;5970006;23;20273;-77
2022/11/08 06:45:39;;;;;;;7.70;6.90;;;6.90;99.90;;;;;;5971083;23;20253;-78
2022/11/08 06:48:08;;;;;;;8.50;7.15;;;6.90;99.90;;;;;;5957558;23;20211;-78
2022/11/08 06:50:38;;;;;;;8.07;7.28;;;7.00;99.90;;;;;;5962289;23;20238;-78
2022/11/08 06:53:07;;;;;;;7.03;6.28;;;7.00;99.90;;;;;;5968768;23;20237;-77
2022/11/08 06:55:36;;;;;;;7.70;6.90;;;7.00;99.90;;;;;;5950648;23;20238;-77
2022/11/08 06:58:04;;;;;;;8.10;6.75;;;7.00;99.90;;;;;;5968437;23;20658;-77
2022/11/08 07:00:32;;;;;;;7.43;6.72;;;7.10;99.90;;;;;;5977344;23;20211;-78
2022/11/08 07:03:01;;;;;;;6.55;5.97;;;7.30;99.90;;;;;;5967755;23;20602;-77
2022/11/08 07:05:29;;;;;;;6.78;6.05;;;7.10;99.90;;;;;;5972301;23;20278;-78
2022/11/08 07:07:57;;;;;;;7.30;6.57;;;7.30;99.90;;;;;;5971408;23;20273;-78
2022/11/08 07:10:26;;;;;;;7.97;6.55;;;7.30;99.90;;;;;;5964576;23;20200;-77
2022/11/08 07:13:00;;;;;;;7.05;5.70;;;7.30;99.90;;;;;;5969454;23;20249;-77
2022/11/08 07:15:28;;;;;;;11.15;6.63;;;7.30;99.90;;;;;;5960901;23;20285;-77
2022/11/08 07:18:00;;;;;;;8.43;7.07;;;7.40;99.90;;;;;;5961096;23;20190;-77
2022/11/08 07:20:27;;;;;;;6.80;5.72;;;7.50;99.90;;;;;;5972747;23;20307;-77
2022/11/08 07:22:55;;;;;;;7.10;6.40;;;7.60;99.90;;;;;;5961347;23;20220;-78
2022/11/08 07:25:23;;;;;;;7.60;6.80;;;7.60;99.90;;;;;;5957997;23;20243;-78
2022/11/08 07:27:54;;;;;;;10.40;6.70;;;7.60;99.90;;;;;;5937318;24;20544;-77
2022/11/08 07:30:23;;;;;;;7.15;6.32;;;7.70;99.90;;;;;;5975150;23;20189;-77
2022/11/08 07:32:51;;;;;;;6.72;6.13;;;7.70;99.90;;;;;;5971938;23;20273;-77
2022/11/08 07:35:19;;;;;;;7.55;6.80;;;7.90;99.90;;;;;;5964056;23;20216;-77
2022/11/08 07:37:46;;;;;;;7.65;6.22;;;8.00;99.90;;;;;;5964818;23;20655;-76
2022/11/08 07:40:14;;;;;;;6.93;6.22;;;8.10;99.90;;;;;;5975363;23;20246;-78
2022/11/08 07:42:42;;;;;;;9.70;6.47;;;8.20;99.90;;;;;;5957506;23;20198;-78
2022/11/08 07:45:10;;;;;;;6.93;6.22;;;8.30;99.90;;;;;;5952394;23;20656;-78
2022/11/08 07:47:39;;;;;;;7.85;5.50;;;8.40;99.90;;;;;;5950961;23;20763;-78
2022/11/08 07:50:08;;;;;;;6.53;5.93;;;8.50;99.90;;;;;;5972566;23;20190;-78
2022/11/08 07:52:35;;;;;;;6.80;5.93;;;8.50;99.90;;;;;;5974868;23;20210;-78
2022/11/08 07:55:05;;;;;;;7.40;6.70;;;8.50;99.90;;;;;;5973126;23;20190;-77
2022/11/08 07:57:33;;;;;;;7.82;6.43;;;8.40;99.90;;;;;;5970788;23;20190;-78
2022/11/08 08:00:00;;;;;;;9.23;6.57;;;8.60;99.90;;;;;;5975685;23;20214;-78
2022/11/08 08:02:28;;;;;;;8.60;6.53;;;8.60;99.90;;;;;;5963483;23;20205;-78
2022/11/08 08:04:56;;;;;;;8.07;5.35;;;8.60;99.90;;;;;;5954447;23;20186;-78
2022/11/08 08:07:23;;;;;;;5.43;4.95;;;8.80;99.90;;;;;;5960271;23;20286;-78
2022/11/08 08:09:51;;;;;;;6.25;5.30;;;9.20;99.90;;;;;;5966551;23;20306;-78
2022/11/08 08:12:18;;;;;;;5.63;4.65;;;9.50;99.90;;;;;;5967860;24;20256;-78
2022/11/08 08:14:45;;;;;;;6.10;5.32;;;9.80;99.90;;;;;;5974106;23;20257;-78
2022/11/08 08:17:12;;;;;;;5.75;4.80;;;10.20;99.90;;;;;;5968732;23;20230;-78
2022/11/08 08:19:39;;;;;;;5.40;4.90;;;10.60;99.90;;;;;;5952958;23;20279;-78
2022/11/08 08:22:07;;;;;;;7.35;5.18;;;11.10;99.90;;;;;;5965381;23;20187;-78
2022/11/08 08:24:35;;;;;;;6.90;4.47;;;11.70;99.90;;;;;;5956678;23;20195;-78
2022/11/08 08:27:02;;;;;;;4.88;4.38;;;12.20;99.90;;;;;;5956850;23;20195;-79
2022/11/08 08:29:29;;;;;;;5.80;5.30;;;12.70;99.90;;;;;;5969302;23;20310;-78
2022/11/08 08:31:58;;;;;;;5.53;4.90;;;12.90;99.90;;;;;;5966906;23;20543;-77
2022/11/08 08:34:25;;;;;;;6.80;4.50;;;13.20;99.90;;;;;;5966271;23;20472;-78
2022/11/08 08:36:52;;;;;;;5.00;4.20;;;13.40;99.90;;;;;;5976145;23;20511;-79
2022/11/08 08:39:20;;;;;;;4.20;3.80;;;13.90;99.90;;;;;;5975741;23;20531;-78
2022/11/08 08:41:48;;;;;;;5.70;4.00;;;14.40;99.90;;;;;;5972003;23;20466;-77
2022/11/08 08:44:16;;;;;;;7.33;4.23;;;14.70;99.90;;;;;;5974428;23;20724;-78
2022/11/08 08:46:43;;;;;;;4.83;3.97;;;14.80;99.90;;;;;;5972917;23;20438;-78
2022/11/08 08:49:10;;;;;;;4.53;4.13;;;14.80;99.90;;;;;;5966594;23;20525;-79
2022/11/08 08:51:38;;;;;;;4.77;4.10;;;14.80;99.90;;;;;;5976128;23;20509;-78
2022/11/08 08:54:06;;;;;;;4.40;4.00;;;14.40;99.90;;;;;;5961170;23;20443;-78
2022/11/08 08:56:34;;;;;;;5.67;4.07;;;14.30;99.90;;;;;;5966877;24;20445;-78
2022/11/08 08:59:01;;;;;;;4.20;3.80;;;13.70;99.90;;;;;;5970602;23;20490;-78
2022/11/08 09:01:29;;;;;;;5.50;4.90;;;13.30;99.90;;;;;;5950420;23;20461;-78
2022/11/08 09:03:57;;;;;;;5.20;4.10;;;13.10;99.90;;;;;;5956866;23;20524;-78
2022/11/08 09:06:24;;;;;;;5.93;4.30;;;13.00;99.90;;;;;;5964926;23;20450;-79
2022/11/08 09:08:51;;;;;;;4.57;4.10;;;13.10;99.90;;;;;;5949745;23;20981;-78
2022/11/08 09:11:19;;;;;;;4.47;3.90;;;13.10;99.90;;;;;;5955221;23;20522;-78
2022/11/08 09:13:47;;;;;;;5.17;4.20;;;13.10;99.90;;;;;;5952642;23;20534;-77
2022/11/08 09:16:15;;;;;;;6.17;3.97;;;13.00;99.90;;;;;;5965155;23;20483;-78
2022/11/08 09:18:41;;;;;;;4.53;3.93;;;13.00;99.90;;;;;;5973764;23;20495;-78
2022/11/08 09:21:10;;;;;;;6.27;4.43;;;13.10;99.90;;;;;;5954026;24;20469;-78
2022/11/08 09:23:40;;;;;;;4.97;4.43;;;13.30;99.90;;;;;;5950513;23;20452;-78
2022/11/08 09:26:07;;;;;;;5.13;4.63;;;13.50;99.90;;;;;;5961864;23;20441;-78
2022/11/08 09:28:36;;;;;;;5.57;5.03;;;13.70;99.90;;;;;;5956472;23;20949;-78
2022/11/08 09:31:06;;;;;;;5.97;4.60;;;13.90;99.90;;;;;;5973150;23;20517;-78
2022/11/08 09:33:33;;;;;;;6.70;4.57;;;14.10;99.90;;;;;;5953082;23;20433;-78
2022/11/08 09:36:01;;;;;;;4.80;4.40;;;14.30;99.90;;;;;;5926166;24;20837;-79
2022/11/08 09:38:28;;;;;;;5.67;4.60;;;14.60;99.90;;;;;;5950469;24;20529;-78
2022/11/08 09:41:08;;;;;;;5.23;4.73;;;15.10;99.90;;;;;;5950172;23;20799;-78
2022/11/08 09:43:52;;;;;;;5.07;4.50;;;15.60;99.90;;;;;;5965225;23;20472;-78
2022/11/08 09:46:28;;;;;;;4.87;4.40;;;16.00;99.90;;;;;;5960129;23;20494;-78
2022/11/08 09:48:57;;;;;;;5.73;5.20;;;16.20;99.90;;;;;;5966538;23;20438;-78
2022/11/08 09:51:31;;;;;;;5.33;4.53;;;16.00;99.90;;;;;;5961868;23;20842;-79
2022/11/08 09:54:00;;;;;;;5.63;3.90;;;15.80;99.90;;;;;;5982881;23;20999;-78
2022/11/08 09:56:29;;;;;;;5.73;4.80;;;15.30;99.90;;;;;;5958395;23;20842;-78
2022/11/08 09:59:00;;;;;;;5.90;4.27;;;15.00;99.90;;;;;;5952410;23;20646;-74
2022/11/08 10:01:32;;;;;;;4.20;3.80;;;14.80;99.90;;;;;;5969244;23;20863;-73
2022/11/08 10:04:03;;;;;;;4.10;3.70;;;14.50;99.90;;;;;;5950143;23;20442;-75
2022/11/08 10:06:45;;;;;;;5.43;4.20;;;14.30;99.90;;;;;;5951569;23;20519;-73
2022/11/08 10:09:27;;;;;;;5.20;4.10;;;14.00;99.90;;;;;;5971526;23;20785;-73
2022/11/08 10:12:09;;;;;;;6.73;4.90;;;13.80;99.90;;;;;;5977996;23;20914;-73
2022/11/08 10:14:45;;;;;;;5.50;4.10;;;13.70;99.90;;;;;;5953839;23;21570;-73
2022/11/08 10:17:35;;;;;;;4.87;4.40;;;13.50;99.90;;;;;;5951404;23;20807;-73
2022/11/08 10:20:19;;;;;;;6.27;4.40;;;13.20;99.90;;;;;;5950674;23;20486;-72
2022/11/08 10:22:52;;;;;;;5.10;4.60;;;13.10;99.90;;;;;;5990561;23;20439;-72
2022/11/08 10:25:24;;;;;;;5.60;4.90;;;13.00;99.90;;;;;;5976823;24;20427;-71
2022/11/08 10:27:54;;;;;;;4.73;3.97;;;13.10;99.90;;;;;;5975359;23;20453;-75
2022/11/08 10:30:23;;;;;;;6.77;4.47;;;13.10;99.90;;;;;;5966533;23;20478;-73
2022/11/08 10:32:54;;;;;;;4.77;4.07;;;13.20;99.90;;;;;;5972110;23;20999;-71
2022/11/08 10:35:27;;;;;;;4.90;4.30;;;13.20;99.90;;;;;;5970585;23;20453;-73
2022/11/08 10:37:57;;;;;;;4.30;3.77;;;13.30;99.90;;;;;;5968073;23;20901;-74
2022/11/08 10:40:36;;;;;;;7.03;4.13;;;13.30;99.90;;;;;;5950873;23;20527;-74
2022/11/08 10:43:10;;;;;;;5.10;4.20;;;13.50;99.90;;;;;;5972180;23;20857;-76
2022/11/08 10:45:37;;;;;;;6.00;4.33;;;13.70;99.90;;;;;;5959274;23;20454;-75
2022/11/08 10:48:06;;;;;;;4.53;4.00;;;13.80;99.90;;;;;;5951404;23;20430;-74
2022/11/08 10:50:42;;;;;;;4.60;3.93;;;14.00;99.90;;;;;;5966764;23;20923;-75
2022/11/08 10:53:17;;;;;;;6.17;4.10;;;14.10;99.90;;;;;;5950103;23;20430;-74
2022/11/08 10:55:50;;;;;;;4.80;3.70;;;14.50;99.90;;;;;;5953696;23;20450;-74
2022/11/08 10:58:32;;;;;;;5.07;4.07;;;14.90;99.90;;;;;;5950500;23;20449;-75
2022/11/08 11:01:05;;;;;;;6.00;4.03;;;15.10;99.90;;;;;;5952196;23;20459;-75
2022/11/08 11:03:34;;;;;;;4.90;4.03;;;15.10;99.90;;;;;;5965470;23;20573;-75
2022/11/08 11:06:04;;;;;;;6.53;4.27;;;15.20;99.90;;;;;;5950722;23;20513;-80
2022/11/08 11:08:31;;;;;;;7.13;4.20;;;15.10;99.90;;;;;;5950907;23;20959;-74
2022/11/08 11:11:27;;;;;;;10.00;4.77;;;15.10;99.90;;;;;;5951377;23;20439;-74
2022/11/08 11:14:11;;;;;;;6.17;4.10;;;15.00;99.90;;;;;;5963354;23;20514;-73
2022/11/08 11:16:55;;;;;;;5.57;4.50;;;15.10;99.90;;;;;;5954713;23;20466;-75
2022/11/08 11:19:26;;;;;;;4.10;3.70;;;15.20;99.90;;;;;;5987483;23;20847;-75
2022/11/08 11:21:57;;;;;;;5.50;4.47;;;15.50;99.90;;;;;;5978940;23;20548;-75
2022/11/08 11:24:24;;;;;;;3.87;3.40;;;15.60;99.90;;;;;;5977086;23;20496;-75
2022/11/08 11:27:03;;;;;;;5.43;3.80;;;15.60;99.90;;;;;;5964909;23;20480;-76
2022/11/08 11:29:33;;;;;;;3.70;3.40;;;15.60;99.90;;;;;;5977855;23;20442;-72
2022/11/08 11:32:22;;;;;;;4.73;3.73;;;15.60;99.90;;;;;;5961575;23;21112;-72
2022/11/08 11:34:54;;;;;;;6.77;4.80;;;15.60;99.90;;;;;;5953945;23;20513;-74
2022/11/08 11:37:38;;;;;;;3.60;3.30;;;15.70;99.90;;;;;;5953648;23;20965;-72
2022/11/08 11:40:19;;;;;;;4.00;3.70;;;15.70;99.90;;;;;;5948262;23;20452;-82
2022/11/08 11:42:54;;;;;;;4.80;3.63;;;15.80;99.90;;;;;;5951088;23;20462;-72
2022/11/08 11:45:27;;;;;;;5.00;3.00;;;16.00;99.90;;;;;;5951491;23;20445;-78
2022/11/08 11:47:58;;;;;;;3.73;3.00;;;16.00;99.90;;;;;;5951143;23;20761;-76
2022/11/08 11:50:33;;;;;;;3.27;2.97;;;16.00;99.90;;;;;;5957787;23;20469;-77
2022/11/08 11:53:04;;;;;;;4.80;2.90;;;16.00;99.90;;;;;;5978735;23;20458;-76
2022/11/08 11:56:05;;;;;;;3.30;2.60;;;16.00;99.90;;;;;;5961759;23;20529;-77
2022/11/08 11:58:51;;;;;;;4.57;3.07;;;16.10;99.90;;;;;;5950373;24;20437;-78
2022/11/08 12:01:29;;;;;;;5.90;2.70;;;16.30;99.90;;;;;;5957989;23;20516;-78
2022/11/08 12:04:21;;;;;;;4.17;2.80;;;16.50;99.90;;;;;;5951979;23;20909;-78
2022/11/08 12:06:58;;;;;;;2.90;2.60;;;16.70;99.90;;;;;;5968737;23;21002;-77
2022/11/08 12:09:42;;;;;;;3.27;2.97;;;16.80;99.90;;;;;;5973573;23;20450;-78
2022/11/08 12:12:22;;;;;;;3.07;2.40;;;17.10;99.90;;;;;;5958774;23;20529;-77
2022/11/08 12:15:01;;;;;;;4.53;2.60;;;17.30;99.90;;;;;;5961416;23;20430;-78
2022/11/08 12:17:47;;;;;;;4.53;3.00;;;17.50;99.90;;;;;;5968756;23;20503;-78
2022/11/08 12:20:33;;;;;;;4.47;3.50;;;17.50;99.90;;;;;;5950195;23;20964;-78
2022/11/08 12:23:30;;;;;;;2.67;2.47;;;17.50;99.90;;;;;;5963390;23;20991;-77
2022/11/08 12:26:02;;;;;;;4.17;2.67;;;17.50;99.90;;;;;;5947176;23;20451;-78
2022/11/08 12:28:46;;;;;;;4.87;2.67;;;17.50;99.90;;;;;;5951977;23;20447;-78
2022/11/08 12:31:25;;;;;;;4.00;2.47;;;17.50;99.90;;;;;;5965173;23;20449;-78
2022/11/08 12:34:06;;;;;;;5.27;2.73;;;17.40;99.90;;;;;;5950855;23;20451;-78
2022/11/08 12:36:38;;;;;;;2.50;2.30;;;17.60;99.90;;;;;;5954057;23;20434;-78
2022/11/08 12:39:19;;;;;;;4.33;2.70;;;17.90;99.90;;;;;;5964183;23;20457;-78
2022/11/08 12:41:56;;;;;;;4.73;2.90;;;18.30;99.90;;;;;;5974650;23;20526;-78
2022/11/08 12:44:47;;;;;;;3.50;3.20;;;18.40;99.90;;;;;;5953292;23;20452;-79
2022/11/08 12:47:26;;;;;;;3.00;2.37;;;18.50;99.90;;;;;;5932583;23;20801;-79
2022/11/08 12:50:03;;;;;;;4.27;2.87;;;18.40;99.90;;;;;;5954897;23;20452;-79
2022/11/08 12:52:59;;;;;;;3.17;2.57;;;18.50;99.90;;;;;;5959742;23;20442;-79
2022/11/08 12:55:34;;;;;;;3.40;2.60;;;18.40;99.90;;;;;;5976252;23;21138;-78
2022/11/08 12:58:09;;;;;;;4.30;3.00;;;18.30;99.90;;;;;;5957064;24;20437;-79
2022/11/08 13:00:39;;;;;;;4.37;2.50;;;18.10;99.90;;;;;;5956291;23;20437;-78
2022/11/08 13:03:21;;;;;;;3.50;2.53;;;18.10;99.90;;;;;;5966071;23;21023;-79
2022/11/08 13:05:55;;;;;;;2.60;2.40;;;18.00;99.90;;;;;;5965007;23;20457;-79
2022/11/08 13:08:30;;;;;;;3.53;2.60;;;18.00;99.90;;;;;;5960372;23;20526;-78
2022/11/08 13:11:04;;;;;;;2.80;2.57;;;18.00;99.90;;;;;;5972763;23;20444;-79
2022/11/08 13:13:38;;;;;;;4.03;2.53;;;18.00;99.90;;;;;;5956510;23;20434;-78
2022/11/08 13:16:14;;;;;;;3.73;2.80;;;18.00;99.90;;;;;;5951887;23;20450;-78
2022/11/08 13:18:47;;;;;;;3.97;2.90;;;18.00;99.90;;;;;;5971511;23;20447;-79
2022/11/08 13:21:41;;;;;;;6.33;2.97;;;18.00;99.90;;;;;;5972753;23;20509;-79
2022/11/08 13:24:33;;;;;;;4.57;3.00;;;18.00;99.90;;;;;;5959899;23;20541;-78
2022/11/08 13:27:34;;;;;;;5.13;2.97;;;18.00;99.90;;;;;;5949003;23;20988;-79